Time;durP1;ratioP1;P1;durP2;ratioP2;P2;SDS_P1;SDS_P2;PMS_P1;PMS_P2;Temp;Humidity;BMP_temperature;BMP_pressure;BME280_temperature;BME280_humidity;BME280_pressure;Samples;Min_cycle;Max_cycle;Signal;HPM_P1;HPM_P2
2021/07/30 00:00:43;;;;;;;4.65;2.58;;;16.80;66.30;;;;;;5036898;28;20041;-76
2021/07/30 00:03:09;;;;;;;5.25;2.80;;;16.90;66.30;;;;;;5043710;28;20479;-76
2021/07/30 00:05:35;;;;;;;3.53;2.53;;;16.80;66.10;;;;;;5034081;28;20087;-76
2021/07/30 00:08:00;;;;;;;5.10;2.88;;;16.80;66.10;;;;;;5031111;28;20376;-76
2021/07/30 00:10:26;;;;;;;4.45;2.70;;;16.80;66.10;;;;;;5038925;28;20108;-75
2021/07/30 00:12:55;;;;;;;5.50;2.90;;;16.80;66.00;;;;;;5033990;28;20021;-76
2021/07/30 00:15:22;;;;;;;4.63;2.72;;;16.80;66.00;;;;;;5029929;28;20029;-76
2021/07/30 00:17:48;;;;;;;5.13;2.58;;;16.80;66.00;;;;;;5028570;28;20026;-76
2021/07/30 00:20:14;;;;;;;4.93;2.55;;;16.70;65.90;;;;;;5030248;28;20832;-76
2021/07/30 00:22:39;;;;;;;6.18;2.85;;;16.70;65.90;;;;;;5037536;28;20029;-76
2021/07/30 00:25:05;;;;;;;4.97;2.80;;;16.70;65.80;;;;;;5040280;28;20021;-76
2021/07/30 00:27:31;;;;;;;6.15;2.70;;;16.70;65.80;;;;;;5037758;28;20052;-77
2021/07/30 00:29:56;;;;;;;3.70;2.63;;;16.70;65.70;;;;;;5038864;28;20025;-77
2021/07/30 00:32:22;;;;;;;5.47;2.85;;;16.70;65.70;;;;;;5040181;28;20063;-78
2021/07/30 00:34:47;;;;;;;5.50;3.33;;;16.70;65.60;;;;;;5039201;28;20547;-77
2021/07/30 00:37:13;;;;;;;6.43;3.47;;;16.60;65.50;;;;;;5037857;28;20177;-77
2021/07/30 00:39:39;;;;;;;6.70;3.05;;;16.60;65.60;;;;;;5034309;28;20033;-77
2021/07/30 00:42:04;;;;;;;6.18;3.58;;;16.60;65.70;;;;;;5039854;28;20063;-77
2021/07/30 00:44:30;;;;;;;5.75;3.42;;;16.50;65.80;;;;;;5030497;28;20013;-77
2021/07/30 00:46:57;;;;;;;6.53;3.20;;;16.40;65.90;;;;;;5029316;28;20033;-77
2021/07/30 00:49:23;;;;;;;5.60;3.60;;;16.40;66.00;;;;;;5029024;28;20178;-77
2021/07/30 00:51:49;;;;;;;5.80;3.15;;;16.40;66.10;;;;;;5030915;28;20025;-77
2021/07/30 00:54:15;;;;;;;6.38;3.47;;;16.30;66.10;;;;;;5030409;28;20022;-77
2021/07/30 00:56:41;;;;;;;5.88;2.92;;;16.30;66.20;;;;;;5029589;28;20029;-77
2021/07/30 00:59:07;;;;;;;5.22;3.38;;;16.30;66.20;;;;;;5030553;28;20486;-77
2021/07/30 01:01:33;;;;;;;5.97;3.42;;;16.30;66.20;;;;;;5030256;28;20099;-77
2021/07/30 01:04:02;;;;;;;7.45;3.80;;;16.20;66.20;;;;;;5030394;28;20018;-77
2021/07/30 01:06:28;;;;;;;6.47;3.95;;;16.20;66.30;;;;;;5030334;28;20022;-77
2021/07/30 01:08:53;;;;;;;6.20;3.70;;;16.10;66.50;;;;;;5029083;28;20036;-77
2021/07/30 01:11:19;;;;;;;7.25;4.15;;;16.10;66.60;;;;;;5030630;28;20030;-79
2021/07/30 01:13:45;;;;;;;8.38;4.43;;;16.10;66.70;;;;;;5028572;28;20032;-76
2021/07/30 01:16:10;;;;;;;7.53;3.85;;;16.00;66.90;;;;;;5030321;28;20439;-77
2021/07/30 01:18:36;;;;;;;6.88;3.80;;;16.00;67.10;;;;;;5030656;28;20018;-77
2021/07/30 01:21:08;;;;;;;5.97;3.72;;;15.90;67.10;;;;;;5028209;28;20159;-77
2021/07/30 01:23:34;;;;;;;5.40;3.70;;;15.90;67.40;;;;;;5029195;28;20025;-77
2021/07/30 01:25:59;;;;;;;6.30;4.10;;;15.90;67.30;;;;;;5029375;28;20040;-77
2021/07/30 01:28:32;;;;;;;5.70;3.88;;;15.90;67.40;;;;;;5030138;28;20383;-76
2021/07/30 01:30:58;;;;;;;;;;;15.80;67.50;;;;;;5019132;28;20557;-78
2021/07/30 01:33:23;;;;;;;8.50;4.43;;;15.90;67.40;;;;;;5030376;28;19909;-77
2021/07/30 01:35:49;;;;;;;5.85;4.03;;;15.80;67.50;;;;;;5030009;28;20025;-77
2021/07/30 01:38:14;;;;;;;7.47;4.28;;;15.80;67.60;;;;;;5030277;28;20108;-77
2021/07/30 01:40:40;;;;;;;5.05;3.50;;;15.80;67.70;;;;;;5029745;28;20033;-76
2021/07/30 01:43:05;;;;;;;6.03;3.50;;;15.80;67.70;;;;;;5032269;28;20025;-77
2021/07/30 01:45:31;;;;;;;7.05;4.25;;;15.80;67.80;;;;;;5048156;28;20045;-76
2021/07/30 01:47:56;;;;;;;5.78;3.55;;;15.70;67.80;;;;;;5040509;28;20522;-77
2021/07/30 01:50:22;;;;;;;7.18;4.57;;;15.70;67.80;;;;;;5030533;28;20017;-77
2021/07/30 01:52:47;;;;;;;8.35;5.15;;;15.70;67.90;;;;;;5030407;28;20041;-76
2021/07/30 01:55:13;;;;;;;7.13;4.20;;;15.60;68.30;;;;;;5029270;28;20060;-76
2021/07/30 01:57:38;;;;;;;9.48;4.30;;;15.60;68.30;;;;;;5029653;28;20029;-76
2021/07/30 02:00:04;;;;;;;6.10;3.50;;;15.60;68.30;;;;;;5029524;28;20033;-76
2021/07/30 02:02:33;;;;;;;6.28;4.00;;;15.60;68.20;;;;;;5029813;28;20029;-76
2021/07/30 02:04:59;;;;;;;7.10;4.40;;;15.70;68.20;;;;;;5031579;28;20013;-77
2021/07/30 02:07:25;;;;;;;5.30;3.47;;;15.60;68.20;;;;;;5033598;28;20026;-77
2021/07/30 02:09:50;;;;;;;8.65;4.20;;;15.60;68.20;;;;;;5033344;28;20021;-76
2021/07/30 02:12:16;;;;;;;6.45;4.32;;;15.60;68.20;;;;;;5024295;28;20029;-77
2021/07/30 02:14:41;;;;;;;7.13;4.03;;;15.50;68.30;;;;;;5033334;28;20029;-77
2021/07/30 02:17:07;;;;;;;8.05;4.05;;;15.50;68.40;;;;;;5032906;28;20030;-77
2021/07/30 02:19:32;;;;;;;5.10;3.33;;;15.50;68.50;;;;;;5033367;28;20064;-77
2021/07/30 02:21:58;;;;;;;8.68;4.82;;;15.50;68.50;;;;;;5032939;28;20069;-77
2021/07/30 02:24:24;;;;;;;5.97;3.58;;;15.50;68.70;;;;;;5033277;28;20106;-77
2021/07/30 02:26:50;;;;;;;6.43;4.05;;;15.50;68.70;;;;;;5033287;28;20472;-77
2021/07/30 02:29:15;;;;;;;5.78;3.50;;;15.40;68.70;;;;;;5032441;28;20036;-77
2021/07/30 02:31:41;;;;;;;6.70;3.70;;;15.40;68.70;;;;;;5032401;28;20478;-76
2021/07/30 02:34:07;;;;;;;8.00;3.63;;;15.50;68.70;;;;;;5032516;28;20346;-76
2021/07/30 02:36:33;;;;;;;5.78;3.63;;;15.40;68.70;;;;;;5032102;28;20550;-76
2021/07/30 02:38:58;;;;;;;6.78;3.80;;;15.40;68.70;;;;;;5033138;28;20038;-75
2021/07/30 02:41:24;;;;;;;5.35;3.25;;;15.40;68.70;;;;;;5032527;28;20068;-76
2021/07/30 02:43:49;;;;;;;4.90;3.53;;;15.40;68.70;;;;;;5032893;28;20030;-76
2021/07/30 02:46:16;;;;;;;6.88;4.40;;;15.40;68.80;;;;;;5027816;28;20458;-76
2021/07/30 02:48:45;;;;;;;6.03;4.03;;;15.40;68.90;;;;;;5031479;28;20041;-76
2021/07/30 02:51:12;;;;;;;5.82;3.70;;;15.40;69.00;;;;;;5030972;28;20037;-76
2021/07/30 02:53:38;;;;;;;7.60;3.90;;;15.30;69.00;;;;;;5032734;28;20017;-76
2021/07/30 02:56:04;;;;;;;5.18;3.78;;;15.30;69.00;;;;;;5031314;28;20026;-76
2021/07/30 02:58:30;;;;;;;7.65;4.10;;;15.40;69.10;;;;;;5031077;28;20582;-76
2021/07/30 03:00:56;;;;;;;6.38;3.90;;;15.30;69.20;;;;;;5032239;28;20025;-76
2021/07/30 03:03:22;;;;;;;6.57;4.18;;;15.30;69.20;;;;;;5032735;28;20471;-75
2021/07/30 03:05:47;;;;;;;7.18;4.60;;;15.20;69.30;;;;;;5032378;28;20475;-77
2021/07/30 03:08:13;;;;;;;7.07;4.45;;;15.20;69.40;;;;;;5032197;28;20107;-77
2021/07/30 03:10:39;;;;;;;8.43;4.53;;;15.20;69.50;;;;;;5031942;28;20067;-77
2021/07/30 03:13:04;;;;;;;7.38;4.70;;;15.20;69.60;;;;;;5032384;28;20531;-77
2021/07/30 03:15:30;;;;;;;5.65;3.35;;;15.10;69.80;;;;;;5031773;28;20022;-76
2021/07/30 03:17:55;;;;;;;7.68;4.35;;;15.20;69.80;;;;;;5031641;28;20022;-77
2021/07/30 03:20:21;;;;;;;7.30;4.45;;;15.10;69.80;;;;;;5031812;28;20017;-76
2021/07/30 03:22:46;;;;;;;6.55;3.85;;;15.10;69.90;;;;;;5031179;28;20029;-76
2021/07/30 03:25:12;;;;;;;7.15;4.63;;;15.10;70.00;;;;;;5031277;28;20112;-76
2021/07/30 03:27:37;;;;;;;5.45;3.70;;;15.10;70.80;;;;;;5031139;28;20033;-76
2021/07/30 03:30:04;;;;;;;5.00;3.38;;;15.10;70.10;;;;;;5031979;28;20025;-76
2021/07/30 03:32:29;;;;;;;8.50;4.70;;;15.10;70.00;;;;;;5031514;28;20064;-77
2021/07/30 03:34:55;;;;;;;10.45;4.57;;;15.10;70.10;;;;;;5031668;28;20057;-77
2021/07/30 03:37:21;;;;;;;8.10;5.10;;;15.00;70.20;;;;;;5030016;28;20028;-76
2021/07/30 03:39:46;;;;;;;7.25;4.18;;;15.00;70.40;;;;;;5031784;28;20033;-76
2021/07/30 03:42:11;;;;;;;9.68;5.30;;;15.00;70.30;;;;;;5031462;28;20038;-76
2021/07/30 03:44:37;;;;;;;7.60;4.63;;;15.00;70.60;;;;;;5030953;28;20546;-76
2021/07/30 03:47:03;;;;;;;6.78;4.10;;;14.90;70.70;;;;;;5031023;28;20034;-76
2021/07/30 03:49:28;;;;;;;4.95;3.25;;;15.00;70.80;;;;;;5031283;28;20045;-76
2021/07/30 03:51:54;;;;;;;7.18;3.70;;;15.00;70.60;;;;;;5031699;28;20040;-76
2021/07/30 03:54:20;;;;;;;6.55;4.20;;;15.00;70.60;;;;;;5031862;28;20403;-77
2021/07/30 03:56:45;;;;;;;6.90;4.00;;;15.00;70.70;;;;;;5030384;28;20025;-77
2021/07/30 03:59:12;;;;;;;8.05;4.30;;;15.00;70.80;;;;;;5030222;28;20030;-77
2021/07/30 04:01:40;;;;;;;5.35;3.80;;;15.00;70.90;;;;;;5031005;28;20491;-76
2021/07/30 04:04:06;;;;;;;7.45;4.55;;;15.00;70.80;;;;;;5031136;28;20057;-76
2021/07/30 04:06:31;;;;;;;7.60;4.22;;;15.10;70.80;;;;;;5030911;28;20061;-76
2021/07/30 04:08:57;;;;;;;8.65;5.00;;;15.00;70.80;;;;;;5031347;28;20043;-76
2021/07/30 04:11:22;;;;;;;8.80;5.53;;;15.00;70.80;;;;;;5031251;28;20167;-76
2021/07/30 04:13:48;;;;;;;6.93;4.03;;;15.00;71.10;;;;;;5031356;28;20079;-77
2021/07/30 04:16:13;;;;;;;7.13;3.88;;;15.00;71.00;;;;;;5030117;28;20611;-77
2021/07/30 04:18:39;;;;;;;4.85;3.20;;;15.00;70.90;;;;;;5031063;28;20431;-76
2021/07/30 04:21:06;;;;;;;5.90;4.03;;;15.10;70.80;;;;;;5031164;28;20049;-77
2021/07/30 04:23:32;;;;;;;6.00;3.33;;;15.20;70.80;;;;;;5030997;28;20396;-77
2021/07/30 04:25:57;;;;;;;6.05;3.80;;;15.30;70.60;;;;;;5029193;28;20395;-78
2021/07/30 04:28:23;;;;;;;7.22;3.92;;;15.30;70.40;;;;;;5028466;28;20022;-77
2021/07/30 04:30:48;;;;;;;7.00;4.45;;;15.30;70.30;;;;;;5030385;28;20024;-78
2021/07/30 04:33:14;;;;;;;6.72;4.50;;;15.30;70.40;;;;;;5031205;28;20382;-78
2021/07/30 04:35:39;;;;;;;6.28;3.90;;;15.40;70.40;;;;;;5030217;28;20040;-78
2021/07/30 04:38:05;;;;;;;9.38;4.75;;;15.40;70.40;;;;;;5029866;28;20025;-78
2021/07/30 04:40:30;;;;;;;8.10;4.50;;;15.40;70.50;;;;;;5030025;28;20033;-78
2021/07/30 04:42:57;;;;;;;8.70;4.47;;;15.30;70.70;;;;;;5035694;28;20602;-77
2021/07/30 04:45:23;;;;;;;6.47;3.67;;;15.30;70.90;;;;;;5038845;28;20372;-78
2021/07/30 04:47:49;;;;;;;7.10;3.70;;;15.40;70.80;;;;;;5031584;28;20014;-78
2021/07/30 04:50:14;;;;;;;5.43;3.72;;;15.40;70.80;;;;;;5030553;28;20022;-78
2021/07/30 04:52:40;;;;;;;5.53;3.60;;;15.40;70.60;;;;;;5030696;28;20476;-78
2021/07/30 04:55:06;;;;;;;4.20;2.97;;;15.50;70.60;;;;;;5028994;28;20361;-77
2021/07/30 04:57:32;;;;;;;7.72;3.33;;;15.60;70.50;;;;;;5028058;28;20496;-77
2021/07/30 04:59:58;;;;;;;6.35;3.33;;;15.60;70.30;;;;;;5030008;28;20454;-79
2021/07/30 05:02:24;;;;;;;5.65;3.55;;;15.70;70.20;;;;;;5030791;28;20108;-78
2021/07/30 05:04:49;;;;;;;6.22;3.88;;;15.70;70.00;;;;;;5030367;28;20022;-77
2021/07/30 05:07:15;;;;;;;3.90;2.80;;;15.70;70.00;;;;;;5030814;28;20036;-78
2021/07/30 05:09:40;;;;;;;4.63;2.97;;;15.80;70.00;;;;;;5030338;28;20025;-78
2021/07/30 05:12:06;;;;;;;6.03;3.42;;;15.90;69.90;;;;;;5031020;28;20013;-77
2021/07/30 05:14:32;;;;;;;7.13;3.72;;;16.00;69.60;;;;;;5030729;28;20017;-78
2021/07/30 05:16:57;;;;;;;10.05;4.38;;;16.00;69.60;;;;;;5030109;28;20021;-78
2021/07/30 05:19:23;;;;;;;6.07;3.63;;;16.00;69.60;;;;;;5030589;28;20029;-78
2021/07/30 05:21:48;;;;;;;5.65;3.08;;;16.00;69.50;;;;;;5030804;28;20034;-78
2021/07/30 05:24:14;;;;;;;7.38;3.78;;;16.10;69.40;;;;;;5030671;28;20018;-79
2021/07/30 05:26:40;;;;;;;5.68;3.60;;;16.10;69.40;;;;;;5030249;28;20026;-79
2021/07/30 05:29:08;;;;;;;6.35;3.40;;;16.10;69.40;;;;;;5029081;28;20075;-78
2021/07/30 05:31:34;;;;;;;6.47;4.18;;;16.10;69.40;;;;;;5029385;28;20021;-78
2021/07/30 05:33:59;;;;;;;7.38;4.60;;;16.20;69.30;;;;;;5029075;28;20499;-84
2021/07/30 05:36:25;;;;;;;5.50;3.45;;;16.10;69.40;;;;;;5028866;28;20484;-78
2021/07/30 05:38:51;;;;;;;7.32;3.80;;;16.20;69.40;;;;;;5029485;28;20022;-78
2021/07/30 05:41:17;;;;;;;6.82;4.07;;;16.30;69.30;;;;;;5033701;28;20045;-78
2021/07/30 05:43:44;;;;;;;11.07;4.55;;;16.70;68.90;;;;;;5032898;28;20021;-79
2021/07/30 05:46:10;;;;;;;7.18;3.47;;;17.00;67.90;;;;;;5032782;28;20088;-78
2021/07/30 05:48:36;;;;;;;6.97;3.63;;;17.50;66.90;;;;;;5033770;28;20033;-79
2021/07/30 05:51:02;;;;;;;4.75;3.40;;;18.00;65.90;;;;;;5033720;28;20047;-78
2021/07/30 05:53:27;;;;;;;6.53;2.83;;;18.60;64.40;;;;;;5033275;28;20113;-79
2021/07/30 05:55:53;;;;;;;7.53;3.20;;;18.90;63.40;;;;;;5032308;28;20033;-79
2021/07/30 05:58:18;;;;;;;8.75;4.53;;;18.70;63.10;;;;;;5033304;28;20017;-79
2021/07/30 06:00:44;;;;;;;6.05;3.50;;;18.50;63.30;;;;;;5033873;28;20033;-78
2021/07/30 06:03:09;;;;;;;8.07;3.42;;;18.30;64.00;;;;;;5033495;28;20057;-79
2021/07/30 06:05:35;;;;;;;4.03;2.80;;;18.40;64.30;;;;;;5033431;28;20057;-78
2021/07/30 06:08:05;;;;;;;6.78;3.78;;;18.50;64.10;;;;;;5032154;28;20502;-77
2021/07/30 06:10:31;;;;;;;4.68;2.97;;;18.80;63.70;;;;;;5031177;28;20025;-77
2021/07/30 06:12:56;;;;;;;6.30;3.72;;;19.40;62.70;;;;;;5033583;28;20049;-79
2021/07/30 06:15:23;;;;;;;6.28;3.65;;;19.70;61.00;;;;;;5032911;28;20049;-78
2021/07/30 06:17:49;;;;;;;6.43;3.75;;;19.50;61.20;;;;;;5031817;28;20021;-78
2021/07/30 06:20:15;;;;;;;6.10;3.80;;;19.40;61.40;;;;;;5033442;28;20124;-78
2021/07/30 06:22:41;;;;;;;5.63;3.35;;;19.30;61.70;;;;;;5032230;28;20128;-78
2021/07/30 06:25:07;;;;;;;5.97;4.00;;;19.40;61.80;;;;;;5033645;28;20492;-78
2021/07/30 06:27:34;;;;;;;6.28;3.45;;;19.20;61.80;;;;;;5032462;28;20163;-78
2021/07/30 06:30:03;;;;;;;7.25;3.95;;;19.00;62.30;;;;;;5033118;28;20480;-78
2021/07/30 06:32:29;;;;;;;6.82;3.20;;;18.90;62.90;;;;;;5033102;28;20037;-78
2021/07/30 06:34:55;;;;;;;6.82;4.10;;;19.30;62.70;;;;;;5032688;28;20036;-78
2021/07/30 06:37:21;;;;;;;8.75;4.13;;;19.70;61.90;;;;;;5031968;28;20037;-78
2021/07/30 06:39:46;;;;;;;8.50;5.22;;;20.20;61.10;;;;;;5031566;28;20032;-78
2021/07/30 06:42:12;;;;;;;5.57;3.50;;;20.50;59.90;;;;;;5032078;28;20060;-78
2021/07/30 06:44:37;;;;;;;7.82;3.40;;;20.50;60.00;;;;;;5032115;28;20399;-78
2021/07/30 06:47:04;;;;;;;8.73;5.10;;;20.40;60.00;;;;;;5031555;28;20122;-78
2021/07/30 06:49:30;;;;;;;7.28;4.88;;;20.20;60.10;;;;;;5030197;28;20032;-78
2021/07/30 06:51:55;;;;;;;6.55;3.80;;;20.00;60.70;;;;;;5032301;28;20108;-78
2021/07/30 06:54:21;;;;;;;6.00;3.97;;;20.00;61.20;;;;;;5031938;28;20029;-81
2021/07/30 06:56:47;;;;;;;7.80;4.72;;;20.10;61.30;;;;;;5031478;28;20390;-78
2021/07/30 06:59:12;;;;;;;8.82;4.57;;;20.10;61.20;;;;;;5031983;28;20038;-78
2021/07/30 07:01:38;;;;;;;7.35;4.13;;;20.10;61.10;;;;;;5031753;28;20025;-78
2021/07/30 07:04:04;;;;;;;5.78;3.75;;;20.00;61.30;;;;;;5031723;28;20025;-77
2021/07/30 07:06:29;;;;;;;9.40;5.00;;;20.10;61.40;;;;;;5031336;28;20029;-77
2021/07/30 07:08:58;;;;;;;8.07;4.68;;;20.10;61.20;;;;;;5031734;28;20029;-77
2021/07/30 07:11:24;;;;;;;8.73;5.15;;;20.10;61.30;;;;;;5031811;28;20064;-77
2021/07/30 07:13:49;;;;;;;7.15;3.95;;;20.00;61.20;;;;;;5031184;28;20048;-77
2021/07/30 07:16:21;;;;;;;8.60;3.90;;;20.10;62.20;;;;;;5030757;28;20351;-78
2021/07/30 07:18:47;;;;;;;7.15;3.88;;;20.30;61.30;;;;;;5029583;28;20021;-76
2021/07/30 07:21:13;;;;;;;8.27;5.10;;;20.30;61.20;;;;;;5029949;28;20075;-78
2021/07/30 07:23:39;;;;;;;5.95;3.33;;;20.30;61.10;;;;;;5031198;28;20384;-77
2021/07/30 07:26:05;;;;;;;4.70;2.40;;;20.30;61.20;;;;;;5028442;28;20026;-76
2021/07/30 07:28:30;;;;;;;5.97;3.97;;;20.40;61.20;;;;;;5031280;28;20465;-76
2021/07/30 07:30:56;;;;;;;7.22;3.60;;;20.50;61.00;;;;;;5031314;28;20040;-76
2021/07/30 07:33:22;;;;;;;8.80;4.40;;;20.60;60.70;;;;;;5030830;28;20025;-79
2021/07/30 07:35:47;;;;;;;6.00;3.40;;;20.80;60.30;;;;;;5030513;28;20021;-78
2021/07/30 07:38:13;;;;;;;5.35;2.95;;;20.80;60.10;;;;;;5031016;28;20100;-78
2021/07/30 07:40:38;;;;;;;3.95;2.72;;;20.90;60.00;;;;;;5030811;28;20428;-78
2021/07/30 07:43:04;;;;;;;5.28;3.22;;;21.10;60.00;;;;;;5031092;28;20026;-78
2021/07/30 07:45:30;;;;;;;7.65;3.30;;;21.10;60.00;;;;;;5030773;28;20361;-78
2021/07/30 07:47:56;;;;;;;6.88;3.60;;;21.10;59.90;;;;;;5030638;28;20043;-78
2021/07/30 07:50:21;;;;;;;6.47;3.40;;;21.10;60.40;;;;;;5030991;28;20388;-77
2021/07/30 07:52:47;;;;;;;4.72;2.50;;;21.10;59.90;;;;;;5030953;28;20030;-78
2021/07/30 07:55:12;;;;;;;5.93;3.45;;;21.30;59.90;;;;;;5030462;28;20037;-78
2021/07/30 07:57:41;;;;;;;7.60;3.92;;;21.30;59.70;;;;;;5030730;28;20032;-78
2021/07/30 08:00:10;;;;;;;8.40;4.00;;;21.20;59.70;;;;;;5030778;28;20425;-78
2021/07/30 08:02:36;;;;;;;8.90;4.18;;;20.90;59.60;;;;;;5027389;28;20448;-78
2021/07/30 08:05:01;;;;;;;8.30;3.88;;;20.90;59.60;;;;;;5030799;28;20059;-78
2021/07/30 08:07:27;;;;;;;8.57;4.28;;;21.00;59.90;;;;;;5030134;28;20116;-78
2021/07/30 08:09:52;;;;;;;8.05;4.10;;;21.00;60.10;;;;;;5030640;28;20480;-78
2021/07/30 08:12:19;;;;;;;8.02;3.60;;;21.10;60.00;;;;;;5030497;28;20021;-79
2021/07/30 08:14:45;;;;;;;7.50;3.78;;;21.30;60.00;;;;;;5031311;28;20028;-76
2021/07/30 08:17:10;;;;;;;7.03;3.65;;;21.50;59.60;;;;;;5030909;28;20108;-76
2021/07/30 08:19:36;;;;;;;9.82;4.72;;;21.60;59.70;;;;;;5030916;28;20109;-77
2021/07/30 08:22:03;;;;;;;8.40;3.83;;;21.60;59.40;;;;;;5031238;28;20046;-77
2021/07/30 08:24:29;;;;;;;5.00;3.25;;;21.70;59.20;;;;;;5031145;28;20018;-77
2021/07/30 08:26:54;;;;;;;5.32;2.60;;;21.90;59.30;;;;;;5041556;28;20495;-77
2021/07/30 08:29:20;;;;;;;5.40;3.38;;;21.90;59.30;;;;;;5031559;28;20025;-77
2021/07/30 08:31:46;;;;;;;4.53;2.70;;;22.10;59.10;;;;;;5030567;28;20032;-77
2021/07/30 08:34:12;;;;;;;5.72;2.42;;;22.20;58.70;;;;;;5031001;28;20024;-77
2021/07/30 08:36:38;;;;;;;5.78;2.97;;;22.40;58.60;;;;;;5029443;28;20022;-77
2021/07/30 08:39:03;;;;;;;4.95;3.00;;;22.30;58.20;;;;;;5030912;28;20063;-77
2021/07/30 08:41:30;;;;;;;5.55;3.20;;;22.40;58.40;;;;;;5031246;28;20037;-77
2021/07/30 08:43:56;;;;;;;5.97;2.42;;;22.40;58.00;;;;;;5030192;28;20175;-77
2021/07/30 08:46:26;;;;;;;7.05;3.08;;;22.50;58.00;;;;;;5030145;28;20124;-77
2021/07/30 08:48:55;;;;;;;5.53;2.65;;;22.40;57.30;;;;;;5024538;28;20184;-77
2021/07/30 08:51:35;;;;;;;;;;;;;;;;;;;;;
2021/07/30 08:54:01;;;;;;;5.97;2.53;;;22.40;57.00;;;;;;5030094;28;20055;-77
2021/07/30 08:56:26;;;;;;;4.90;1.90;;;22.40;56.60;;;;;;5033574;28;20115;-76
2021/07/30 08:58:52;;;;;;;5.15;2.20;;;22.50;57.00;;;;;;5010037;28;20014;-77
2021/07/30 09:01:17;;;;;;;3.25;1.88;;;22.60;56.60;;;;;;5036344;28;20029;-76
2021/07/30 09:03:45;;;;;;;2.90;1.77;;;22.80;56.60;;;;;;5030589;28;20017;-77
2021/07/30 09:06:24;;;;;;;5.72;2.80;;;23.00;56.50;;;;;;5031309;28;20192;-77
2021/07/30 09:09:01;;;;;;;4.50;2.30;;;23.00;55.30;;;;;;5032311;28;20091;-78
2021/07/30 09:11:40;;;;;;;4.63;1.67;;;23.00;55.20;;;;;;5031343;28;20037;-78
2021/07/30 09:14:08;;;;;;;4.53;2.20;;;23.10;55.30;;;;;;5029724;28;20116;-77
2021/07/30 09:16:57;;;;;;;4.43;2.20;;;23.10;54.70;;;;;;5038503;28;20029;-77
2021/07/30 09:19:36;;;;;;;7.53;2.30;;;23.20;54.60;;;;;;5038298;28;20025;-78
2021/07/30 09:22:09;;;;;;;5.28;2.50;;;23.30;54.20;;;;;;5043369;28;20476;-76
2021/07/30 09:24:42;;;;;;;5.72;2.85;;;23.30;54.10;;;;;;5028229;28;20378;-78
2021/07/30 09:27:12;;;;;;;4.10;2.50;;;23.40;53.50;;;;;;5043371;28;20025;-78
2021/07/30 09:29:39;;;;;;;3.97;2.15;;;23.40;53.60;;;;;;5042754;28;20029;-77
2021/07/30 09:32:05;;;;;;;2.67;1.77;;;23.40;53.50;;;;;;5031120;28;20021;-77
2021/07/30 09:34:36;;;;;;;3.22;1.90;;;23.50;53.80;;;;;;5032771;28;20128;-77
2021/07/30 09:37:09;;;;;;;2.00;1.30;;;23.70;53.50;;;;;;5034598;28;20026;-77
2021/07/30 09:39:40;;;;;;;4.20;1.95;;;24.00;53.50;;;;;;5033437;28;20319;-77
2021/07/30 09:42:11;;;;;;;4.13;2.00;;;24.20;53.20;;;;;;5032985;28;20076;-77
2021/07/30 09:44:53;;;;;;;6.57;2.55;;;24.30;52.60;;;;;;5034040;28;20017;-77
2021/07/30 09:47:24;;;;;;;6.40;2.17;;;24.20;50.60;;;;;;5036134;28;20029;-77
2021/07/30 09:49:54;;;;;;;3.97;2.40;;;24.20;51.20;;;;;;5037779;28;20037;-74
2021/07/30 09:52:26;;;;;;;5.60;2.30;;;24.30;51.00;;;;;;5042972;28;20017;-75
2021/07/30 09:55:00;;;;;;;3.72;2.40;;;24.40;51.10;;;;;;5030723;28;20373;-75
2021/07/30 09:57:27;;;;;;;3.35;1.90;;;24.30;50.40;;;;;;5032978;28;20036;-75
2021/07/30 09:59:58;;;;;;;6.07;2.67;;;24.30;50.50;;;;;;5041187;28;20480;-75
2021/07/30 10:02:29;;;;;;;3.03;1.73;;;24.30;50.40;;;;;;5034474;28;20033;-74
2021/07/30 10:04:55;;;;;;;3.22;1.33;;;24.50;50.90;;;;;;5039018;28;20041;-74
2021/07/30 10:07:22;;;;;;;3.70;2.20;;;24.60;50.90;;;;;;5032137;28;20025;-73
2021/07/30 10:10:01;;;;;;;4.55;2.90;;;24.70;50.90;;;;;;5031350;28;20018;-73
2021/07/30 10:12:29;;;;;;;2.92;2.00;;;24.80;50.10;;;;;;5036255;28;20021;-75
2021/07/30 10:14:55;;;;;;;3.75;2.42;;;24.70;50.20;;;;;;5032700;28;20560;-73
2021/07/30 10:17:32;;;;;;;3.75;2.42;;;24.60;50.00;;;;;;5033559;28;20017;-74
2021/07/30 10:19:59;;;;;;;5.55;2.50;;;24.60;50.90;;;;;;5032559;28;20029;-74
2021/07/30 10:22:34;;;;;;;4.10;2.00;;;24.60;50.00;;;;;;5032052;28;20037;-74
2021/07/30 10:25:01;;;;;;;5.18;2.20;;;24.80;50.20;;;;;;5035535;28;20108;-75
2021/07/30 10:27:27;;;;;;;4.03;2.20;;;24.90;49.50;;;;;;5032507;28;20037;-74
2021/07/30 10:30:13;;;;;;;4.30;2.00;;;24.80;49.30;;;;;;5040533;28;20517;-77
2021/07/30 10:32:56;;;;;;;3.70;2.28;;;24.80;49.50;;;;;;5032552;28;20464;-72
2021/07/30 10:35:28;;;;;;;5.13;2.15;;;24.80;49.70;;;;;;5035046;28;20486;-72
2021/07/30 10:38:15;;;;;;;2.65;2.00;;;24.80;49.80;;;;;;5035995;28;20528;-73
2021/07/30 10:40:42;;;;;;;4.28;2.80;;;24.70;49.80;;;;;;5026995;28;20030;-73
2021/07/30 10:43:13;;;;;;;2.42;1.60;;;24.60;49.90;;;;;;5035136;28;20025;-72
2021/07/30 10:45:43;;;;;;;4.30;2.30;;;24.60;50.40;;;;;;5024640;28;20053;-72
2021/07/30 10:48:15;;;;;;;3.53;1.90;;;24.70;50.40;;;;;;5028841;28;20017;-72
2021/07/30 10:50:42;;;;;;;3.60;1.63;;;24.80;50.50;;;;;;5032134;28;20025;-72
2021/07/30 10:53:36;;;;;;;4.13;2.55;;;24.80;50.50;;;;;;5037024;28;20025;-72
2021/07/30 10:56:04;;;;;;;4.43;2.33;;;24.80;50.60;;;;;;5030731;28;20112;-72
2021/07/30 10:58:44;;;;;;;4.95;2.17;;;25.00;50.80;;;;;;5043052;28;20494;-72
2021/07/30 11:01:21;;;;;;;4.07;2.50;;;25.10;50.40;;;;;;5037361;28;20516;-72
2021/07/30 11:03:49;;;;;;;3.80;2.08;;;25.20;50.20;;;;;;5032353;28;20029;-72
2021/07/30 11:06:16;;;;;;;2.42;1.63;;;25.10;49.90;;;;;;5033607;28;20038;-72
2021/07/30 11:09:05;;;;;;;2.85;1.90;;;25.30;50.00;;;;;;5041864;28;20490;-73
2021/07/30 11:11:53;;;;;;;4.43;2.72;;;25.40;49.80;;;;;;5044292;28;20033;-73
2021/07/30 11:14:30;;;;;;;2.78;1.90;;;25.50;49.40;;;;;;5036413;28;20101;-72
2021/07/30 11:16:58;;;;;;;3.95;2.15;;;25.40;49.40;;;;;;5030691;28;20451;-73
2021/07/30 11:19:26;;;;;;;5.32;3.10;;;25.40;49.10;;;;;;5035543;28;20022;-73
2021/07/30 11:21:52;;;;;;;3.28;2.38;;;25.40;48.70;;;;;;5039000;28;20038;-73
2021/07/30 11:24:18;;;;;;;2.72;1.95;;;25.30;49.10;;;;;;5034122;28;20029;-73
2021/07/30 11:26:44;;;;;;;4.85;2.60;;;25.40;49.40;;;;;;5037099;28;20035;-74
2021/07/30 11:29:11;;;;;;;3.45;2.10;;;25.40;49.30;;;;;;5035554;28;20104;-75
2021/07/30 11:31:51;;;;;;;2.50;1.63;;;25.40;49.20;;;;;;5032258;28;20064;-75
2021/07/30 11:34:17;;;;;;;2.80;1.77;;;25.50;49.40;;;;;;5032350;28;20060;-75
2021/07/30 11:36:49;;;;;;;2.95;2.10;;;25.60;49.30;;;;;;5031712;28;20072;-75
2021/07/30 11:39:16;;;;;;;2.72;1.90;;;25.80;48.90;;;;;;5031478;28;20025;-75
2021/07/30 11:41:51;;;;;;;3.83;2.03;;;25.90;48.80;;;;;;5029132;28;20519;-75
2021/07/30 11:44:18;;;;;;;3.83;2.55;;;26.10;48.80;;;;;;5032102;28;20025;-74
2021/07/30 11:46:58;;;;;;;3.42;2.42;;;26.10;48.10;;;;;;5035155;28;20025;-74
2021/07/30 11:49:33;;;;;;;3.55;2.38;;;26.10;47.90;;;;;;5034032;28;20022;-74
2021/07/30 11:52:00;;;;;;;2.40;1.77;;;26.20;48.00;;;;;;5030908;28;20030;-74
2021/07/30 11:54:29;;;;;;;4.10;2.03;;;26.30;48.10;;;;;;5036087;28;20629;-74
2021/07/30 11:56:55;;;;;;;2.75;2.00;;;26.30;47.80;;;;;;5030266;28;20117;-75
2021/07/30 11:59:21;;;;;;;4.07;1.90;;;26.30;47.90;;;;;;5036698;28;20022;-74
2021/07/30 12:02:04;;;;;;;3.67;2.42;;;26.30;47.70;;;;;;5030115;28;20041;-75
2021/07/30 12:04:30;;;;;;;3.28;2.00;;;26.20;47.20;;;;;;5031326;28;20373;-75
2021/07/30 12:07:01;;;;;;;2.28;1.60;;;26.10;47.50;;;;;;5027111;28;20029;-75
2021/07/30 12:09:29;;;;;;;1.67;1.40;;;26.10;47.70;;;;;;5038916;28;20033;-76
2021/07/30 12:11:58;;;;;;;2.22;1.83;;;26.30;48.10;;;;;;5030830;28;20024;-76
2021/07/30 12:14:26;;;;;;;3.08;2.00;;;26.30;48.00;;;;;;5030970;28;20021;-75
2021/07/30 12:16:56;;;;;;;1.92;1.48;;;26.30;47.80;;;;;;5029431;28;20109;-75
2021/07/30 12:19:32;;;;;;;3.88;1.80;;;26.30;48.00;;;;;;5031572;28;20029;-75
2021/07/30 12:22:00;;;;;;;4.93;2.40;;;26.40;48.70;;;;;;5031770;28;20049;-75
2021/07/30 12:24:26;;;;;;;2.50;1.90;;;26.30;47.80;;;;;;5034660;28;20035;-75
2021/07/30 12:26:53;;;;;;;4.88;2.30;;;26.10;48.30;;;;;;5031283;28;20032;-73
2021/07/30 12:29:41;;;;;;;4.68;2.63;;;26.10;47.90;;;;;;5032430;28;20044;-73
2021/07/30 12:32:20;;;;;;;2.30;2.03;;;26.00;47.30;;;;;;5031299;28;20033;-74
2021/07/30 12:35:00;;;;;;;3.58;1.67;;;25.90;47.70;;;;;;5034013;28;20084;-74
2021/07/30 12:37:32;;;;;;;2.85;1.90;;;25.80;48.00;;;;;;5030606;28;20044;-74
2021/07/30 12:40:07;;;;;;;3.90;1.92;;;25.70;48.20;;;;;;5034545;28;20120;-74
2021/07/30 12:42:34;;;;;;;3.42;2.42;;;25.60;48.60;;;;;;5021983;28;20441;-75
2021/07/30 12:45:04;;;;;;;2.42;1.77;;;25.40;48.60;;;;;;5026405;28;20040;-73
2021/07/30 12:47:30;;;;;;;3.13;2.40;;;25.20;49.10;;;;;;5031745;28;20045;-73
2021/07/30 12:49:56;;;;;;;4.18;2.30;;;25.00;49.60;;;;;;5031913;28;20076;-73